KAPN/APN METAR and TAF weather

Enter ICAO airport designator
Station Type Date Time Source
KAPN METAR 2018/12/13 16:11 UTC NOAA

KAPN 131611Z AUTO 19006KT 3SM BR SCT008 BKN013 OVC034 02/01 A3014 RMK AO2 T00220006


Station Type Date Time Source
KAPN Decoded METAR 2018/12/13 16:11 UTC NOAA

ALPENA COUNTY REGIONAL AIRPORT, MI, United States (KAPN) 45-05N 083-34W 210M
Dec 13, 2018 - 11:11 AM EST / 2018.12.13 1611 UTC
Wind: from the S (190 degrees) at 7 MPH (6 KT):0
Visibility: 3 mile(s):0
Sky conditions: overcast
Weather: mist
Temperature: 36.0 F (2.2 C)
Dew Point: 33.1 F (0.6 C)
Relative Humidity: 89%
Pressure (altimeter): 30.14 in. Hg (1020 hPa)
ob: KAPN 131611Z AUTO 19006KT 3SM BR SCT008 BKN013 OVC034 02/01 A3014 RMK AO2 T00220006
cycle: 16

Station Type Date Time Source
KAPN TAF 2018/12/13 13:21 UTC NOAA

TAF
AMD KAPN 131318Z 1313/1412 11006KT 4SM BR SCT009 OVC025
FM131500 14007KT P6SM OVC025
FM140600 VRB03KT P6SM VCSH OVC015


Example: see airport list